sensor_id;sensor_type;location;lat;lon;timestamp;P1;durP1;ratioP1;P2;durP2;ratioP2
56343;SDS011;42245;42.058;24.700;2023-05-10T03:47:09;34.92;;;21.52;;
56343;SDS011;42245;42.058;24.700;2023-05-10T03:49:34;36.65;;;20.73;;
56343;SDS011;42245;42.058;24.700;2023-05-10T03:51:59;30.13;;;20.80;;
56343;SDS011;42245;42.058;24.700;2023-05-10T03:54:25;32.50;;;21.17;;
56343;SDS011;42245;42.058;24.700;2023-05-10T03:56:51;34.83;;;21.38;;
56343;SDS011;42245;42.058;24.700;2023-05-10T03:59:16;37.00;;;20.23;;
56343;SDS011;42245;42.058;24.700;2023-05-10T04:01:41;29.83;;;20.60;;
56343;SDS011;42245;42.058;24.700;2023-05-10T04:04:07;35.15;;;21.10;;
56343;SDS011;42245;42.058;24.700;2023-05-10T04:06:32;39.15;;;21.88;;
56343;SDS011;42245;42.058;24.700;2023-05-10T04:08:58;32.53;;;20.73;;
56343;SDS011;42245;42.058;24.700;2023-05-10T04:11:25;34.10;;;21.27;;
56343;SDS011;42245;42.058;24.700;2023-05-10T04:13:50;30.38;;;20.73;;
56343;SDS011;42245;42.058;24.700;2023-05-10T04:16:16;36.67;;;21.05;;
56343;SDS011;42245;42.058;24.700;2023-05-10T04:18:41;38.38;;;22.38;;
56343;SDS011;42245;42.058;24.700;2023-05-10T04:21:13;41.33;;;22.13;;
56343;SDS011;42245;42.058;24.700;2023-05-10T04:23:39;33.45;;;21.60;;
56343;SDS011;42245;42.058;24.700;2023-05-10T04:26:04;35.38;;;22.95;;
56343;SDS011;42245;42.058;24.700;2023-05-10T04:28:30;36.70;;;22.10;;
56343;SDS011;42245;42.058;24.700;2023-05-10T04:31:05;32.20;;;21.60;;
56343;SDS011;42245;42.058;24.700;2023-05-10T04:33:31;38.38;;;22.13;;
56343;SDS011;42245;42.058;24.700;2023-05-10T04:35:57;38.85;;;21.52;;
56343;SDS011;42245;42.058;24.700;2023-05-10T04:38:22;32.35;;;21.85;;
56343;SDS011;42245;42.058;24.700;2023-05-10T04:40:48;34.53;;;21.92;;
56343;SDS011;42245;42.058;24.700;2023-05-10T04:43:13;35.55;;;22.98;;
56343;SDS011;42245;42.058;24.700;2023-05-10T04:45:38;36.70;;;23.67;;
56343;SDS011;42245;42.058;24.700;2023-05-10T04:48:04;38.38;;;20.83;;
56343;SDS011;42245;42.058;24.700;2023-05-10T04:50:30;37.20;;;21.75;;
56343;SDS011;42245;42.058;24.700;2023-05-10T04:52:55;29.15;;;20.67;;
56343;SDS011;42245;42.058;24.700;2023-05-10T04:55:21;33.67;;;20.98;;
56343;SDS011;42245;42.058;24.700;2023-05-10T04:57:46;33.33;;;19.90;;
56343;SDS011;42245;42.058;24.700;2023-05-10T05:00:12;35.17;;;20.85;;
56343;SDS011;42245;42.058;24.700;2023-05-10T05:02:37;27.95;;;20.95;;
56343;SDS011;42245;42.058;24.700;2023-05-10T05:05:03;33.40;;;21.00;;
56343;SDS011;42245;42.058;24.700;2023-05-10T05:07:29;34.38;;;22.45;;
56343;SDS011;42245;42.058;24.700;2023-05-10T05:09:55;29.40;;;19.67;;
56343;SDS011;42245;42.058;24.700;2023-05-10T05:12:21;28.30;;;17.67;;
56343;SDS011;42245;42.058;24.700;2023-05-10T05:14:46;32.85;;;18.52;;
56343;SDS011;42245;42.058;24.700;2023-05-10T05:17:11;31.27;;;16.70;;
56343;SDS011;42245;42.058;24.700;2023-05-10T05:19:37;29.08;;;18.35;;
56343;SDS011;42245;42.058;24.700;2023-05-10T05:22:02;28.23;;;18.15;;
56343;SDS011;42245;42.058;24.700;2023-05-10T05:24:27;31.90;;;18.80;;
56343;SDS011;42245;42.058;24.700;2023-05-10T05:26:53;27.75;;;18.60;;
56343;SDS011;42245;42.058;24.700;2023-05-10T05:29:18;30.17;;;18.98;;
56343;SDS011;42245;42.058;24.700;2023-05-10T05:31:43;31.23;;;18.55;;
56343;SDS011;42245;42.058;24.700;2023-05-10T05:34:09;32.33;;;18.42;;
56343;SDS011;42245;42.058;24.700;2023-05-10T05:36:35;32.45;;;19.48;;
56343;SDS011;42245;42.058;24.700;2023-05-10T05:39:03;25.85;;;18.17;;
56343;SDS011;42245;42.058;24.700;2023-05-10T05:41:28;26.30;;;18.15;;
56343;SDS011;42245;42.058;24.700;2023-05-10T05:43:54;23.98;;;17.08;;
56343;SDS011;42245;42.058;24.700;2023-05-10T05:46:19;23.73;;;16.63;;
56343;SDS011;42245;42.058;24.700;2023-05-10T05:48:44;24.95;;;17.65;;
56343;SDS011;42245;42.058;24.700;2023-05-10T05:51:10;27.65;;;18.55;;
56343;SDS011;42245;42.058;24.700;2023-05-10T05:53:35;27.67;;;16.73;;
56343;SDS011;42245;42.058;24.700;2023-05-10T05:56:01;25.92;;;15.98;;
56343;SDS011;42245;42.058;24.700;2023-05-10T05:58:26;23.55;;;15.80;;
56343;SDS011;42245;42.058;24.700;2023-05-10T06:00:52;23.02;;;15.52;;
56343;SDS011;42245;42.058;24.700;2023-05-10T06:03:18;22.65;;;14.20;;
56343;SDS011;42245;42.058;24.700;2023-05-10T06:05:44;18.38;;;12.95;;
56343;SDS011;42245;42.058;24.700;2023-05-10T06:08:09;22.30;;;14.73;;
56343;SDS011;42245;42.058;24.700;2023-05-10T06:10:35;22.88;;;14.65;;
56343;SDS011;42245;42.058;24.700;2023-05-10T06:13:01;19.85;;;14.82;;
56343;SDS011;42245;42.058;24.700;2023-05-10T06:15:26;26.48;;;15.90;;
56343;SDS011;42245;42.058;24.700;2023-05-10T06:17:52;25.27;;;14.60;;
56343;SDS011;42245;42.058;24.700;2023-05-10T06:20:17;20.17;;;15.18;;
56343;SDS011;42245;42.058;24.700;2023-05-10T06:22:43;23.20;;;15.23;;
56343;SDS011;42245;42.058;24.700;2023-05-10T06:25:08;23.83;;;14.52;;
56343;SDS011;42245;42.058;24.700;2023-05-10T06:27:34;24.45;;;15.10;;
56343;SDS011;42245;42.058;24.700;2023-05-10T06:30:00;26.10;;;14.38;;
56343;SDS011;42245;42.058;24.700;2023-05-10T06:32:25;23.95;;;13.50;;
56343;SDS011;42245;42.058;24.700;2023-05-10T06:34:51;18.63;;;13.70;;
56343;SDS011;42245;42.058;24.700;2023-05-10T06:37:17;21.98;;;13.68;;
56343;SDS011;42245;42.058;24.700;2023-05-10T06:39:42;23.90;;;14.27;;
56343;SDS011;42245;42.058;24.700;2023-05-10T06:42:08;22.13;;;12.75;;
56343;SDS011;42245;42.058;24.700;2023-05-10T06:44:34;20.70;;;12.65;;
56343;SDS011;42245;42.058;24.700;2023-05-10T06:46:59;18.58;;;12.05;;
56343;SDS011;42245;42.058;24.700;2023-05-10T06:49:24;20.15;;;12.27;;
56343;SDS011;42245;42.058;24.700;2023-05-10T06:51:50;16.05;;;10.95;;
56343;SDS011;42245;42.058;24.700;2023-05-10T06:54:15;18.30;;;11.63;;
56343;SDS011;42245;42.058;24.700;2023-05-10T06:56:40;19.13;;;10.85;;
56343;SDS011;42245;42.058;24.700;2023-05-10T06:59:06;19.85;;;10.70;;
56343;SDS011;42245;42.058;24.700;2023-05-10T07:01:31;17.27;;;10.48;;
56343;SDS011;42245;42.058;24.700;2023-05-10T07:03:56;18.48;;;11.07;;
56343;SDS011;42245;42.058;24.700;2023-05-10T07:06:22;16.33;;;10.65;;
56343;SDS011;42245;42.058;24.700;2023-05-10T07:08:47;16.23;;;9.20;;
56343;SDS011;42245;42.058;24.700;2023-05-10T07:11:13;14.82;;;10.70;;
56343;SDS011;42245;42.058;24.700;2023-05-10T07:13:38;21.33;;;10.68;;
56343;SDS011;42245;42.058;24.700;2023-05-10T07:16:06;17.65;;;10.65;;
56343;SDS011;42245;42.058;24.700;2023-05-10T07:18:32;15.10;;;11.23;;
56343;SDS011;42245;42.058;24.700;2023-05-10T07:20:58;20.80;;;10.88;;
56343;SDS011;42245;42.058;24.700;2023-05-10T07:23:23;16.95;;;11.20;;
56343;SDS011;42245;42.058;24.700;2023-05-10T07:25:49;16.75;;;10.77;;
56343;SDS011;42245;42.058;24.700;2023-05-10T07:28:17;19.27;;;10.05;;
56343;SDS011;42245;42.058;24.700;2023-05-10T07:30:42;16.63;;;9.20;;
56343;SDS011;42245;42.058;24.700;2023-05-10T07:33:09;18.00;;;9.68;;
56343;SDS011;42245;42.058;24.700;2023-05-10T07:35:35;14.70;;;9.25;;
56343;SDS011;42245;42.058;24.700;2023-05-10T07:38:01;14.38;;;9.93;;
56343;SDS011;42245;42.058;24.700;2023-05-10T07:40:26;13.93;;;9.35;;
56343;SDS011;42245;42.058;24.700;2023-05-10T07:42:52;16.17;;;10.20;;
56343;SDS011;42245;42.058;24.700;2023-05-10T07:45:17;20.17;;;9.68;;
56343;SDS011;42245;42.058;24.700;2023-05-10T07:47:43;20.15;;;10.73;;
56343;SDS011;42245;42.058;24.700;2023-05-10T07:50:08;19.08;;;11.23;;
56343;SDS011;42245;42.058;24.700;2023-05-10T07:52:34;15.55;;;9.25;;
56343;SDS011;42245;42.058;24.700;2023-05-10T07:54:59;12.63;;;9.02;;
56343;SDS011;42245;42.058;24.700;2023-05-10T07:57:24;15.70;;;10.07;;
56343;SDS011;42245;42.058;24.700;2023-05-10T07:59:50;13.95;;;9.25;;
56343;SDS011;42245;42.058;24.700;2023-05-10T08:02:15;14.57;;;9.50;;
56343;SDS011;42245;42.058;24.700;2023-05-10T08:04:41;15.38;;;10.73;;
56343;SDS011;42245;42.058;24.700;2023-05-10T08:07:06;14.50;;;9.75;;
56343;SDS011;42245;42.058;24.700;2023-05-10T08:09:32;13.98;;;10.10;;
56343;SDS011;42245;42.058;24.700;2023-05-10T08:11:57;15.65;;;9.73;;
56343;SDS011;42245;42.058;24.700;2023-05-10T08:14:24;15.57;;;8.73;;
56343;SDS011;42245;42.058;24.700;2023-05-10T08:16:50;11.88;;;8.38;;
56343;SDS011;42245;42.058;24.700;2023-05-10T08:19:16;15.85;;;10.57;;
56343;SDS011;42245;42.058;24.700;2023-05-10T08:21:44;19.70;;;8.85;;
56343;SDS011;42245;42.058;24.700;2023-05-10T08:24:09;15.00;;;8.77;;
56343;SDS011;42245;42.058;24.700;2023-05-10T08:26:35;13.15;;;8.10;;
56343;SDS011;42245;42.058;24.700;2023-05-10T08:29:00;12.43;;;8.43;;
56343;SDS011;42245;42.058;24.700;2023-05-10T08:31:26;15.00;;;9.40;;
56343;SDS011;42245;42.058;24.700;2023-05-10T08:33:51;13.48;;;7.97;;
56343;SDS011;42245;42.058;24.700;2023-05-10T08:36:17;11.55;;;7.82;;
56343;SDS011;42245;42.058;24.700;2023-05-10T08:38:46;13.77;;;8.68;;
56343;SDS011;42245;42.058;24.700;2023-05-10T08:41:13;13.90;;;7.80;;
56343;SDS011;42245;42.058;24.700;2023-05-10T08:43:39;13.80;;;7.90;;
56343;SDS011;42245;42.058;24.700;2023-05-10T08:46:06;10.65;;;7.85;;
56343;SDS011;42245;42.058;24.700;2023-05-10T08:48:33;9.02;;;6.82;;
56343;SDS011;42245;42.058;24.700;2023-05-10T08:50:59;12.32;;;7.18;;
56343;SDS011;42245;42.058;24.700;2023-05-10T08:53:25;10.98;;;7.30;;
56343;SDS011;42245;42.058;24.700;2023-05-10T08:55:52;12.35;;;7.13;;
56343;SDS011;42245;42.058;24.700;2023-05-10T08:58:18;13.60;;;7.35;;
56343;SDS011;42245;42.058;24.700;2023-05-10T09:00:44;11.68;;;7.65;;
56343;SDS011;42245;42.058;24.700;2023-05-10T09:03:10;12.63;;;7.13;;
56343;SDS011;42245;42.058;24.700;2023-05-10T09:05:36;12.18;;;7.60;;
56343;SDS011;42245;42.058;24.700;2023-05-10T09:08:02;12.18;;;7.75;;
56343;SDS011;42245;42.058;24.700;2023-05-10T09:10:27;10.30;;;7.75;;
56343;SDS011;42245;42.058;24.700;2023-05-10T09:12:53;19.30;;;7.35;;
56343;SDS011;42245;42.058;24.700;2023-05-10T09:15:21;11.43;;;7.68;;
56343;SDS011;42245;42.058;24.700;2023-05-10T09:17:47;10.52;;;7.90;;
56343;SDS011;42245;42.058;24.700;2023-05-10T09:20:12;13.07;;;7.82;;
56343;SDS011;42245;42.058;24.700;2023-05-10T09:22:38;16.95;;;8.80;;
56343;SDS011;42245;42.058;24.700;2023-05-10T09:27:33;11.98;;;8.13;;
56343;SDS011;42245;42.058;24.700;2023-05-10T09:29:58;14.57;;;8.05;;
56343;SDS011;42245;42.058;24.700;2023-05-10T09:32:37;11.45;;;6.95;;
56343;SDS011;42245;42.058;24.700;2023-05-10T09:35:07;13.20;;;8.73;;
56343;SDS011;42245;42.058;24.700;2023-05-10T09:37:53;13.77;;;8.88;;
56343;SDS011;42245;42.058;24.700;2023-05-10T09:40:20;13.15;;;7.43;;
56343;SDS011;42245;42.058;24.700;2023-05-10T09:42:57;10.10;;;7.60;;
56343;SDS011;42245;42.058;24.700;2023-05-10T09:45:25;13.95;;;8.27;;
56343;SDS011;42245;42.058;24.700;2023-05-10T09:47:55;10.32;;;7.90;;
56343;SDS011;42245;42.058;24.700;2023-05-10T09:50:21;11.10;;;8.00;;
56343;SDS011;42245;42.058;24.700;2023-05-10T09:55:21;11.50;;;8.60;;
56343;SDS011;42245;42.058;24.700;2023-05-10T09:57:48;13.48;;;8.32;;
56343;SDS011;42245;42.058;24.700;2023-05-10T10:00:16;7.63;;;6.78;;
56343;SDS011;42245;42.058;24.700;2023-05-10T10:02:44;11.65;;;7.22;;
56343;SDS011;42245;42.058;24.700;2023-05-10T10:05:12;13.07;;;8.05;;
56343;SDS011;42245;42.058;24.700;2023-05-10T10:07:38;10.02;;;7.85;;
56343;SDS011;42245;42.058;24.700;2023-05-10T10:10:04;12.82;;;7.93;;
56343;SDS011;42245;42.058;24.700;2023-05-10T10:12:30;10.93;;;7.22;;
56343;SDS011;42245;42.058;24.700;2023-05-10T10:14:56;13.50;;;7.35;;
56343;SDS011;42245;42.058;24.700;2023-05-10T10:17:22;10.23;;;7.13;;
56343;SDS011;42245;42.058;24.700;2023-05-10T10:19:50;13.40;;;7.55;;
56343;SDS011;42245;42.058;24.700;2023-05-10T10:22:16;11.20;;;7.15;;
56343;SDS011;42245;42.058;24.700;2023-05-10T10:24:42;10.73;;;7.03;;
56343;SDS011;42245;42.058;24.700;2023-05-10T10:27:42;7.97;;;6.80;;
56343;SDS011;42245;42.058;24.700;2023-05-10T10:30:28;8.00;;;7.07;;
56343;SDS011;42245;42.058;24.700;2023-05-10T10:35:35;9.25;;;7.00;;
56343;SDS011;42245;42.058;24.700;2023-05-10T10:38:01;9.18;;;6.43;;
56343;SDS011;42245;42.058;24.700;2023-05-10T10:40:28;11.60;;;7.22;;
56343;SDS011;42245;42.058;24.700;2023-05-10T10:42:55;10.43;;;7.22;;
56343;SDS011;42245;42.058;24.700;2023-05-10T10:45:21;9.75;;;6.82;;
56343;SDS011;42245;42.058;24.700;2023-05-10T10:47:47;9.43;;;6.68;;
56343;SDS011;42245;42.058;24.700;2023-05-10T10:50:13;10.30;;;7.32;;
56343;SDS011;42245;42.058;24.700;2023-05-10T10:52:41;9.48;;;6.72;;
56343;SDS011;42245;42.058;24.700;2023-05-10T10:55:13;10.20;;;6.95;;
56343;SDS011;42245;42.058;24.700;2023-05-10T11:02:47;9.55;;;6.95;;
56343;SDS011;42245;42.058;24.700;2023-05-10T11:07:54;8.52;;;6.80;;
56343;SDS011;42245;42.058;24.700;2023-05-10T11:10:21;11.30;;;6.85;;
56343;SDS011;42245;42.058;24.700;2023-05-10T11:12:59;8.85;;;7.07;;
56343;SDS011;42245;42.058;24.700;2023-05-10T11:15:28;9.50;;;7.75;;
56343;SDS011;42245;42.058;24.700;2023-05-10T11:17:57;12.25;;;6.65;;
56343;SDS011;42245;42.058;24.700;2023-05-10T11:20:23;10.95;;;8.00;;
56343;SDS011;42245;42.058;24.700;2023-05-10T11:22:58;8.40;;;6.20;;
56343;SDS011;42245;42.058;24.700;2023-05-10T11:25:40;9.00;;;6.65;;
56343;SDS011;42245;42.058;24.700;2023-05-10T11:28:09;7.28;;;6.10;;
56343;SDS011;42245;42.058;24.700;2023-05-10T11:30:35;10.20;;;6.68;;
56343;SDS011;42245;42.058;24.700;2023-05-10T11:33:02;7.75;;;5.97;;
56343;SDS011;42245;42.058;24.700;2023-05-10T11:35:27;9.23;;;6.75;;
56343;SDS011;42245;42.058;24.700;2023-05-10T11:37:53;7.28;;;6.47;;
56343;SDS011;42245;42.058;24.700;2023-05-10T11:40:18;11.48;;;6.70;;
56343;SDS011;42245;42.058;24.700;2023-05-10T11:42:44;11.38;;;6.43;;
56343;SDS011;42245;42.058;24.700;2023-05-10T11:45:10;6.78;;;5.97;;
56343;SDS011;42245;42.058;24.700;2023-05-10T11:47:36;8.38;;;6.25;;
56343;SDS011;42245;42.058;24.700;2023-05-10T11:50:02;9.90;;;6.70;;
56343;SDS011;42245;42.058;24.700;2023-05-10T11:52:27;8.20;;;6.72;;
56343;SDS011;42245;42.058;24.700;2023-05-10T11:54:54;9.25;;;7.20;;
56343;SDS011;42245;42.058;24.700;2023-05-10T11:57:20;6.90;;;6.20;;
56343;SDS011;42245;42.058;24.700;2023-05-10T11:59:46;9.93;;;6.90;;
56343;SDS011;42245;42.058;24.700;2023-05-10T12:02:13;7.15;;;6.45;;
56343;SDS011;42245;42.058;24.700;2023-05-10T12:04:38;10.25;;;7.40;;
56343;SDS011;42245;42.058;24.700;2023-05-10T12:07:04;11.80;;;7.32;;
56343;SDS011;42245;42.058;24.700;2023-05-10T12:09:30;8.52;;;7.57;;
56343;SDS011;42245;42.058;24.700;2023-05-10T12:11:55;9.13;;;7.13;;
56343;SDS011;42245;42.058;24.700;2023-05-10T12:14:22;11.70;;;7.18;;
56343;SDS011;42245;42.058;24.700;2023-05-10T12:16:47;9.10;;;7.25;;
56343;SDS011;42245;42.058;24.700;2023-05-10T12:19:17;9.52;;;7.53;;
56343;SDS011;42245;42.058;24.700;2023-05-10T12:21:43;11.98;;;7.57;;
56343;SDS011;42245;42.058;24.700;2023-05-10T12:24:09;8.95;;;7.85;;
56343;SDS011;42245;42.058;24.700;2023-05-10T12:26:35;10.40;;;8.38;;
56343;SDS011;42245;42.058;24.700;2023-05-10T12:29:19;8.48;;;6.82;;
56343;SDS011;42245;42.058;24.700;2023-05-10T12:32:03;15.85;;;7.93;;
56343;SDS011;42245;42.058;24.700;2023-05-10T12:34:32;13.25;;;9.00;;
56343;SDS011;42245;42.058;24.700;2023-05-10T12:36:59;11.80;;;7.75;;
56343;SDS011;42245;42.058;24.700;2023-05-10T12:39:25;9.80;;;8.60;;
56343;SDS011;42245;42.058;24.700;2023-05-10T12:41:50;9.70;;;8.50;;
56343;SDS011;42245;42.058;24.700;2023-05-10T12:44:16;10.52;;;8.48;;
56343;SDS011;42245;42.058;24.700;2023-05-10T12:46:42;9.48;;;8.57;;
56343;SDS011;42245;42.058;24.700;2023-05-10T12:49:07;9.82;;;8.32;;
56343;SDS011;42245;42.058;24.700;2023-05-10T12:51:33;11.45;;;8.90;;
56343;SDS011;42245;42.058;24.700;2023-05-10T12:53:58;12.63;;;10.45;;
56343;SDS011;42245;42.058;24.700;2023-05-10T12:56:24;10.65;;;8.95;;
56343;SDS011;42245;42.058;24.700;2023-05-10T12:58:49;12.65;;;9.55;;
56343;SDS011;42245;42.058;24.700;2023-05-10T13:01:15;14.00;;;10.63;;
56343;SDS011;42245;42.058;24.700;2023-05-10T13:03:41;12.02;;;10.40;;
56343;SDS011;42245;42.058;24.700;2023-05-10T13:06:08;17.42;;;10.98;;
56343;SDS011;42245;42.058;24.700;2023-05-10T13:08:33;14.32;;;9.85;;
56343;SDS011;42245;42.058;24.700;2023-05-10T13:11:02;14.27;;;10.80;;
56343;SDS011;42245;42.058;24.700;2023-05-10T13:13:27;13.75;;;11.20;;
56343;SDS011;42245;42.058;24.700;2023-05-10T13:15:53;13.75;;;10.73;;
56343;SDS011;42245;42.058;24.700;2023-05-10T13:18:18;12.98;;;10.70;;
56343;SDS011;42245;42.058;24.700;2023-05-10T13:20:44;13.52;;;10.30;;
56343;SDS011;42245;42.058;24.700;2023-05-10T13:23:10;12.43;;;9.80;;
56343;SDS011;42245;42.058;24.700;2023-05-10T13:25:35;15.77;;;10.35;;
56343;SDS011;42245;42.058;24.700;2023-05-10T13:28:01;12.35;;;9.77;;
56343;SDS011;42245;42.058;24.700;2023-05-10T13:30:27;9.98;;;8.98;;
56343;SDS011;42245;42.058;24.700;2023-05-10T13:32:53;12.25;;;9.93;;
56343;SDS011;42245;42.058;24.700;2023-05-10T13:35:19;12.15;;;10.27;;
56343;SDS011;42245;42.058;24.700;2023-05-10T13:37:45;15.50;;;10.95;;
56343;SDS011;42245;42.058;24.700;2023-05-10T13:40:10;13.57;;;10.93;;
56343;SDS011;42245;42.058;24.700;2023-05-10T13:42:36;10.57;;;9.23;;
56343;SDS011;42245;42.058;24.700;2023-05-10T13:45:02;18.38;;;9.20;;
56343;SDS011;42245;42.058;24.700;2023-05-10T13:47:28;12.05;;;10.02;;
56343;SDS011;42245;42.058;24.700;2023-05-10T13:49:53;11.68;;;9.32;;
56343;SDS011;42245;42.058;24.700;2023-05-10T13:52:19;11.15;;;8.50;;
56343;SDS011;42245;42.058;24.700;2023-05-10T13:54:44;10.00;;;9.00;;
56343;SDS011;42245;42.058;24.700;2023-05-10T13:57:10;11.63;;;8.23;;
56343;SDS011;42245;42.058;24.700;2023-05-10T13:59:38;37.25;;;24.63;;
56343;SDS011;42245;42.058;24.700;2023-05-10T14:02:04;9.00;;;8.10;;
56343;SDS011;42245;42.058;24.700;2023-05-10T14:04:30;10.43;;;9.27;;
56343;SDS011;42245;42.058;24.700;2023-05-10T14:06:56;9.63;;;8.48;;
56343;SDS011;42245;42.058;24.700;2023-05-10T14:09:22;10.40;;;8.18;;
56343;SDS011;42245;42.058;24.700;2023-05-10T14:11:47;11.20;;;8.48;;
56343;SDS011;42245;42.058;24.700;2023-05-10T14:14:13;9.30;;;8.35;;
56343;SDS011;42245;42.058;24.700;2023-05-10T14:16:41;11.20;;;8.32;;
56343;SDS011;42245;42.058;24.700;2023-05-10T14:19:07;11.52;;;9.32;;
56343;SDS011;42245;42.058;24.700;2023-05-10T14:21:33;14.52;;;10.02;;
56343;SDS011;42245;42.058;24.700;2023-05-10T14:23:58;14.07;;;10.57;;
56343;SDS011;42245;42.058;24.700;2023-05-10T14:26:24;14.32;;;11.13;;
56343;SDS011;42245;42.058;24.700;2023-05-10T14:28:50;12.25;;;10.82;;
56343;SDS011;42245;42.058;24.700;2023-05-10T14:31:15;17.02;;;12.60;;
56343;SDS011;42245;42.058;24.700;2023-05-10T14:33:41;11.00;;;9.35;;
56343;SDS011;42245;42.058;24.700;2023-05-10T14:36:07;16.85;;;11.27;;
56343;SDS011;42245;42.058;24.700;2023-05-10T14:38:33;14.68;;;8.70;;
56343;SDS011;42245;42.058;24.700;2023-05-10T14:40:59;11.75;;;8.98;;
56343;SDS011;42245;42.058;24.700;2023-05-10T14:43:24;13.43;;;9.05;;
56343;SDS011;42245;42.058;24.700;2023-05-10T14:45:50;12.55;;;7.50;;
56343;SDS011;42245;42.058;24.700;2023-05-10T14:48:15;12.57;;;7.60;;
56343;SDS011;42245;42.058;24.700;2023-05-10T14:50:42;11.02;;;8.20;;
56343;SDS011;42245;42.058;24.700;2023-05-10T14:53:08;11.38;;;8.43;;
56343;SDS011;42245;42.058;24.700;2023-05-10T14:55:34;10.25;;;8.60;;
56343;SDS011;42245;42.058;24.700;2023-05-10T14:58:00;10.32;;;7.80;;
56343;SDS011;42245;42.058;24.700;2023-05-10T15:00:29;9.88;;;8.23;;
56343;SDS011;42245;42.058;24.700;2023-05-10T15:02:55;8.88;;;7.93;;
56343;SDS011;42245;42.058;24.700;2023-05-10T15:05:21;11.00;;;8.45;;
56343;SDS011;42245;42.058;24.700;2023-05-10T15:07:47;9.90;;;7.95;;
56343;SDS011;42245;42.058;24.700;2023-05-10T15:10:12;11.90;;;8.73;;
56343;SDS011;42245;42.058;24.700;2023-05-10T15:12:39;11.43;;;7.85;;
56343;SDS011;42245;42.058;24.700;2023-05-10T15:15:04;8.70;;;7.53;;
56343;SDS011;42245;42.058;24.700;2023-05-10T15:17:31;10.23;;;8.07;;
56343;SDS011;42245;42.058;24.700;2023-05-10T15:19:56;12.07;;;8.15;;
56343;SDS011;42245;42.058;24.700;2023-05-10T15:22:22;10.13;;;8.25;;
56343;SDS011;42245;42.058;24.700;2023-05-10T15:24:47;11.05;;;8.30;;
56343;SDS011;42245;42.058;24.700;2023-05-10T15:27:13;10.10;;;9.00;;
56343;SDS011;42245;42.058;24.700;2023-05-10T15:29:38;9.63;;;7.70;;
56343;SDS011;42245;42.058;24.700;2023-05-10T15:32:03;9.60;;;7.50;;
56343;SDS011;42245;42.058;24.700;2023-05-10T15:34:29;9.10;;;7.75;;
56343;SDS011;42245;42.058;24.700;2023-05-10T15:36:54;10.98;;;7.10;;
56343;SDS011;42245;42.058;24.700;2023-05-10T15:39:20;7.15;;;6.45;;
56343;SDS011;42245;42.058;24.700;2023-05-10T15:41:45;14.70;;;8.95;;
56343;SDS011;42245;42.058;24.700;2023-05-10T15:44:12;20.90;;;12.98;;
56343;SDS011;42245;42.058;24.700;2023-05-10T15:46:37;22.35;;;13.38;;
56343;SDS011;42245;42.058;24.700;2023-05-10T15:49:03;11.52;;;8.35;;
56343;SDS011;42245;42.058;24.700;2023-05-10T15:51:28;8.45;;;7.53;;
56343;SDS011;42245;42.058;24.700;2023-05-10T15:53:54;13.43;;;10.63;;
56343;SDS011;42245;42.058;24.700;2023-05-10T15:56:19;9.07;;;7.28;;
56343;SDS011;42245;42.058;24.700;2023-05-10T15:58:45;10.43;;;7.75;;
56343;SDS011;42245;42.058;24.700;2023-05-10T16:01:10;10.60;;;7.95;;
56343;SDS011;42245;42.058;24.700;2023-05-10T16:03:37;9.27;;;7.80;;
56343;SDS011;42245;42.058;24.700;2023-05-10T16:06:02;9.52;;;7.82;;
56343;SDS011;42245;42.058;24.700;2023-05-10T16:08:28;11.80;;;7.65;;
56343;SDS011;42245;42.058;24.700;2023-05-10T16:10:57;12.65;;;7.55;;
56343;SDS011;42245;42.058;24.700;2023-05-10T16:13:23;12.60;;;8.02;;
56343;SDS011;42245;42.058;24.700;2023-05-10T16:15:49;7.93;;;7.00;;
56343;SDS011;42245;42.058;24.700;2023-05-10T16:18:14;9.93;;;8.13;;
56343;SDS011;42245;42.058;24.700;2023-05-10T16:20:41;13.50;;;7.68;;
56343;SDS011;42245;42.058;24.700;2023-05-10T16:23:07;10.55;;;7.55;;
56343;SDS011;42245;42.058;24.700;2023-05-10T16:25:33;9.75;;;7.72;;
56343;SDS011;42245;42.058;24.700;2023-05-10T16:27:59;12.32;;;8.60;;
56343;SDS011;42245;42.058;24.700;2023-05-10T16:30:24;12.05;;;7.63;;
56343;SDS011;42245;42.058;24.700;2023-05-10T16:32:54;11.18;;;8.00;;
56343;SDS011;42245;42.058;24.700;2023-05-10T16:35:20;10.93;;;8.15;;
56343;SDS011;42245;42.058;24.700;2023-05-10T16:37:47;10.43;;;8.73;;
56343;SDS011;42245;42.058;24.700;2023-05-10T16:40:13;9.77;;;8.70;;
56343;SDS011;42245;42.058;24.700;2023-05-10T16:42:38;12.57;;;8.05;;
56343;SDS011;42245;42.058;24.700;2023-05-10T16:45:04;11.52;;;7.28;;
56343;SDS011;42245;42.058;24.700;2023-05-10T16:47:33;9.68;;;7.68;;
56343;SDS011;42245;42.058;24.700;2023-05-10T16:49:59;12.35;;;8.90;;
56343;SDS011;42245;42.058;24.700;2023-05-10T16:52:26;12.80;;;9.00;;
56343;SDS011;42245;42.058;24.700;2023-05-10T16:54:55;14.05;;;9.38;;
56343;SDS011;42245;42.058;24.700;2023-05-10T16:57:20;14.70;;;10.85;;
56343;SDS011;42245;42.058;24.700;2023-05-10T16:59:46;12.90;;;9.88;;
56343;SDS011;42245;42.058;24.700;2023-05-10T17:02:12;12.63;;;7.95;;
56343;SDS011;42245;42.058;24.700;2023-05-10T17:04:38;12.70;;;9.43;;
56343;SDS011;42245;42.058;24.700;2023-05-10T17:07:03;12.68;;;9.40;;
56343;SDS011;42245;42.058;24.700;2023-05-10T17:09:29;12.00;;;8.60;;
56343;SDS011;42245;42.058;24.700;2023-05-10T17:11:54;8.30;;;6.88;;
56343;SDS011;42245;42.058;24.700;2023-05-10T17:14:20;21.25;;;8.57;;
56343;SDS011;42245;42.058;24.700;2023-05-10T17:16:46;8.55;;;6.63;;
56343;SDS011;42245;42.058;24.700;2023-05-10T17:19:12;9.55;;;6.75;;
56343;SDS011;42245;42.058;24.700;2023-05-10T17:21:38;10.38;;;6.90;;
56343;SDS011;42245;42.058;24.700;2023-05-10T17:24:03;10.23;;;7.00;;
56343;SDS011;42245;42.058;24.700;2023-05-10T17:26:29;8.60;;;6.90;;
56343;SDS011;42245;42.058;24.700;2023-05-10T17:28:54;13.13;;;8.80;;
56343;SDS011;42245;42.058;24.700;2023-05-10T17:31:20;11.48;;;7.90;;
56343;SDS011;42245;42.058;24.700;2023-05-10T17:33:45;10.30;;;7.60;;
56343;SDS011;42245;42.058;24.700;2023-05-10T17:36:11;7.90;;;6.80;;
56343;SDS011;42245;42.058;24.700;2023-05-10T17:38:36;10.27;;;7.03;;
56343;SDS011;42245;42.058;24.700;2023-05-10T17:41:02;10.38;;;7.25;;
56343;SDS011;42245;42.058;24.700;2023-05-10T17:43:27;8.70;;;7.55;;
56343;SDS011;42245;42.058;24.700;2023-05-10T17:45:53;8.60;;;7.30;;
56343;SDS011;42245;42.058;24.700;2023-05-10T17:48:18;9.15;;;7.32;;
56343;SDS011;42245;42.058;24.700;2023-05-10T17:50:44;10.30;;;7.70;;
56343;SDS011;42245;42.058;24.700;2023-05-10T17:53:09;10.85;;;7.78;;
56343;SDS011;42245;42.058;24.700;2023-05-10T17:55:35;10.75;;;7.50;;
56343;SDS011;42245;42.058;24.700;2023-05-10T17:58:00;12.65;;;8.20;;
56343;SDS011;42245;42.058;24.700;2023-05-10T18:00:26;11.10;;;7.55;;
56343;SDS011;42245;42.058;24.700;2023-05-10T18:02:51;11.05;;;7.43;;
56343;SDS011;42245;42.058;24.700;2023-05-10T18:05:17;7.38;;;5.82;;
56343;SDS011;42245;42.058;24.700;2023-05-10T18:07:42;8.25;;;6.43;;
56343;SDS011;42245;42.058;24.700;2023-05-10T18:10:09;7.88;;;6.30;;
56343;SDS011;42245;42.058;24.700;2023-05-10T18:12:35;9.60;;;6.30;;
56343;SDS011;42245;42.058;24.700;2023-05-10T18:15:00;8.23;;;6.05;;